Saba, Netherlands

11:24 AM AST on May 23, 2017 (GMT -0400)
IDUTCHCA4 | | Change Station

Elev 575 ft 17.48 °N, 62.97 °W | Updated 18 seconds ago

Clear
Clear
84.5 °F
Feels Like 94 °F
N
8.0
Wind Variable Wind from East

Today
High -- | Low -- °F
--% Chance of Precip.
Yesterday
High -- | Low -- °F
Precip. -- in
Pressure 30.06 in
Visibility 6.2 miles
Clouds Scattered Clouds 2200 ft
Heat Index 94 °F
Dew Point 76 °F
Humidity 76%
Rainfall 0.00 in
Snow Depth Not available.
5:38 AM 6:41 PM
Waning Crescent, 7% visible
METAR TNCM 231500Z 11008KT 070V140 9999 SCT022 30/24 Q1018 A3008 NOSIG RMK MIN VIS 10KM N LGT HZ ALQDS
Pressure 30.06 in
Visibility 6.2 miles
Clouds Scattered Clouds 2200 ft
Heat Index 94 °F
Dew Point 76 °F
Humidity 76%
Rainfall 0.00 in
Snow Depth Not available.
5:38 AM 6:41 PM
Waning Crescent, 7% visible
METAR TNCM 231500Z 11008KT 070V140 9999 SCT022 30/24 Q1018 A3008 NOSIG RMK MIN VIS 10KM N LGT HZ ALQDS

Get Severe Weather Alerts

Thanks for signing up!

Be on the lookout for a verification email in your inbox.

You'll start receiving the daily forecast at 6 AM.

×

10-Day Weather Forecast

×

Almanac

Astronomy

May. 23, 2017 Rise Set
Actual Time
Civil Twilight
Nautical Twilight
Astronomical Twilight
Moon
Length of Visible Light
Length of Day
Tomorrow will be .
, % of the Moon is Illuminated

Today's Extremes

Country Highs Country Lows

Community

WunderPhotos

Category 6

Welcome to Category 6. This is the collective home for Weather Underground's featured writeups by Dr. Jeff Masters (right), Bob Henson (left), Chris Burt, and other regular contributors.

Nearby

Air Quality

  Air Quality AQ Index Pollutant
Not available.

Snow Depth

Station Depth Elevation

Earthquake Activity

City Distance Mag. Time & Date
Minimum magnitude displayed is 2.5.

Coastal Water Temperatures

Place Temperature

Stations

Nearby Weather Stations

Station Location Temp. Windchill Dew Point Humidity Wind Precip. Elev Updated Type